sensor_id;sensor_type;location;lat;lon;timestamp;P1;durP1;ratioP1;P2;durP2;ratioP2
25972;SDS011;13765;51.166;4.466;2023-03-09T00:00:16;24.27;;;8.60;;
25972;SDS011;13765;51.166;4.466;2023-03-09T00:02:46;24.75;;;8.68;;
25972;SDS011;13765;51.166;4.466;2023-03-09T00:05:15;28.63;;;9.23;;
25972;SDS011;13765;51.166;4.466;2023-03-09T00:07:41;22.70;;;10.00;;
25972;SDS011;13765;51.166;4.466;2023-03-09T00:10:11;20.10;;;9.23;;
25972;SDS011;13765;51.166;4.466;2023-03-09T00:12:40;21.92;;;8.27;;
25972;SDS011;13765;51.166;4.466;2023-03-09T00:15:07;23.92;;;7.82;;
25972;SDS011;13765;51.166;4.466;2023-03-09T00:17:36;26.02;;;10.05;;
25972;SDS011;13765;51.166;4.466;2023-03-09T00:20:04;27.95;;;10.32;;
25972;SDS011;13765;51.166;4.466;2023-03-09T00:22:41;23.40;;;9.63;;
25972;SDS011;13765;51.166;4.466;2023-03-09T00:25:08;23.73;;;10.18;;
25972;SDS011;13765;51.166;4.466;2023-03-09T00:27:38;25.75;;;10.35;;
25972;SDS011;13765;51.166;4.466;2023-03-09T00:30:08;26.67;;;10.70;;
25972;SDS011;13765;51.166;4.466;2023-03-09T00:32:35;32.75;;;11.60;;
25972;SDS011;13765;51.166;4.466;2023-03-09T00:35:05;30.08;;;10.45;;
25972;SDS011;13765;51.166;4.466;2023-03-09T00:37:35;28.75;;;11.45;;
25972;SDS011;13765;51.166;4.466;2023-03-09T00:40:05;35.20;;;11.73;;
25972;SDS011;13765;51.166;4.466;2023-03-09T00:42:35;24.67;;;11.43;;
25972;SDS011;13765;51.166;4.466;2023-03-09T00:47:34;24.40;;;9.75;;
25972;SDS011;13765;51.166;4.466;2023-03-09T00:50:02;30.77;;;10.57;;
25972;SDS011;13765;51.166;4.466;2023-03-09T00:52:28;29.55;;;9.95;;
25972;SDS011;13765;51.166;4.466;2023-03-09T00:54:56;29.10;;;10.80;;
25972;SDS011;13765;51.166;4.466;2023-03-09T00:57:25;27.88;;;11.02;;
25972;SDS011;13765;51.166;4.466;2023-03-09T00:59:50;33.08;;;12.02;;
25972;SDS011;13765;51.166;4.466;2023-03-09T01:02:20;26.33;;;10.65;;
25972;SDS011;13765;51.166;4.466;2023-03-09T01:04:47;30.02;;;13.02;;
25972;SDS011;13765;51.166;4.466;2023-03-09T01:07:13;27.80;;;12.77;;
25972;SDS011;13765;51.166;4.466;2023-03-09T01:09:41;24.40;;;11.13;;
25972;SDS011;13765;51.166;4.466;2023-03-09T01:12:07;25.38;;;10.57;;
25972;SDS011;13765;51.166;4.466;2023-03-09T01:14:36;27.55;;;9.77;;
25972;SDS011;13765;51.166;4.466;2023-03-09T01:17:02;33.05;;;12.32;;
25972;SDS011;13765;51.166;4.466;2023-03-09T01:19:28;28.52;;;8.98;;
25972;SDS011;13765;51.166;4.466;2023-03-09T01:21:53;29.98;;;11.55;;
25972;SDS011;13765;51.166;4.466;2023-03-09T01:24:22;24.77;;;10.13;;
25972;SDS011;13765;51.166;4.466;2023-03-09T01:26:47;25.40;;;8.18;;
25972;SDS011;13765;51.166;4.466;2023-03-09T01:29:16;24.52;;;10.60;;
25972;SDS011;13765;51.166;4.466;2023-03-09T01:31:41;25.52;;;9.15;;
25972;SDS011;13765;51.166;4.466;2023-03-09T01:34:09;23.30;;;8.85;;
25972;SDS011;13765;51.166;4.466;2023-03-09T01:36:37;24.30;;;9.85;;
25972;SDS011;13765;51.166;4.466;2023-03-09T01:39:04;24.85;;;9.90;;
25972;SDS011;13765;51.166;4.466;2023-03-09T01:41:30;26.73;;;10.75;;
25972;SDS011;13765;51.166;4.466;2023-03-09T01:43:56;30.50;;;11.02;;
25972;SDS011;13765;51.166;4.466;2023-03-09T01:48:48;27.65;;;9.95;;
25972;SDS011;13765;51.166;4.466;2023-03-09T01:51:24;28.40;;;10.02;;
25972;SDS011;13765;51.166;4.466;2023-03-09T01:53:56;19.90;;;9.68;;
25972;SDS011;13765;51.166;4.466;2023-03-09T01:56:24;25.20;;;10.45;;
25972;SDS011;13765;51.166;4.466;2023-03-09T01:58:51;29.77;;;13.68;;
25972;SDS011;13765;51.166;4.466;2023-03-09T02:01:21;28.67;;;10.48;;
25972;SDS011;13765;51.166;4.466;2023-03-09T02:03:50;24.15;;;9.88;;
25972;SDS011;13765;51.166;4.466;2023-03-09T02:06:20;24.00;;;10.30;;
25972;SDS011;13765;51.166;4.466;2023-03-09T02:11:25;23.58;;;7.88;;
25972;SDS011;13765;51.166;4.466;2023-03-09T02:13:53;24.25;;;9.38;;
25972;SDS011;13765;51.166;4.466;2023-03-09T02:16:19;26.05;;;8.88;;
25972;SDS011;13765;51.166;4.466;2023-03-09T02:18:47;22.02;;;8.70;;
25972;SDS011;13765;51.166;4.466;2023-03-09T02:23:55;22.17;;;8.68;;
25972;SDS011;13765;51.166;4.466;2023-03-09T02:29:19;26.63;;;9.27;;
25972;SDS011;13765;51.166;4.466;2023-03-09T02:31:45;27.88;;;11.20;;
25972;SDS011;13765;51.166;4.466;2023-03-09T02:34:14;29.35;;;8.85;;
25972;SDS011;13765;51.166;4.466;2023-03-09T02:36:41;27.80;;;10.98;;
25972;SDS011;13765;51.166;4.466;2023-03-09T02:39:18;27.88;;;10.38;;
25972;SDS011;13765;51.166;4.466;2023-03-09T02:41:52;26.75;;;10.32;;
25972;SDS011;13765;51.166;4.466;2023-03-09T02:44:22;30.02;;;12.05;;
25972;SDS011;13765;51.166;4.466;2023-03-09T02:46:48;30.48;;;11.18;;
25972;SDS011;13765;51.166;4.466;2023-03-09T02:49:14;28.50;;;11.07;;
25972;SDS011;13765;51.166;4.466;2023-03-09T02:51:44;29.85;;;12.02;;
25972;SDS011;13765;51.166;4.466;2023-03-09T02:54:10;27.33;;;9.73;;
25972;SDS011;13765;51.166;4.466;2023-03-09T02:56:38;28.48;;;11.10;;
25972;SDS011;13765;51.166;4.466;2023-03-09T02:59:06;24.80;;;8.40;;
25972;SDS011;13765;51.166;4.466;2023-03-09T03:01:31;29.27;;;9.70;;
25972;SDS011;13765;51.166;4.466;2023-03-09T03:03:57;25.92;;;9.25;;
25972;SDS011;13765;51.166;4.466;2023-03-09T03:06:23;30.55;;;10.52;;
25972;SDS011;13765;51.166;4.466;2023-03-09T03:08:51;28.10;;;11.10;;
25972;SDS011;13765;51.166;4.466;2023-03-09T03:11:19;31.50;;;10.95;;
25972;SDS011;13765;51.166;4.466;2023-03-09T03:13:44;27.42;;;10.63;;
25972;SDS011;13765;51.166;4.466;2023-03-09T03:16:12;29.60;;;11.77;;
25972;SDS011;13765;51.166;4.466;2023-03-09T03:18:38;33.17;;;10.68;;
25972;SDS011;13765;51.166;4.466;2023-03-09T03:21:08;27.58;;;10.18;;
25972;SDS011;13765;51.166;4.466;2023-03-09T03:23:34;28.98;;;10.80;;
25972;SDS011;13765;51.166;4.466;2023-03-09T03:26:06;31.00;;;11.15;;
25972;SDS011;13765;51.166;4.466;2023-03-09T03:28:32;28.77;;;10.95;;
25972;SDS011;13765;51.166;4.466;2023-03-09T03:31:00;28.15;;;10.18;;
25972;SDS011;13765;51.166;4.466;2023-03-09T03:33:26;31.80;;;11.38;;
25972;SDS011;13765;51.166;4.466;2023-03-09T03:35:55;28.95;;;10.40;;
25972;SDS011;13765;51.166;4.466;2023-03-09T03:38:21;26.13;;;9.85;;
25972;SDS011;13765;51.166;4.466;2023-03-09T03:40:48;26.83;;;9.18;;
25972;SDS011;13765;51.166;4.466;2023-03-09T03:43:16;26.67;;;10.27;;
25972;SDS011;13765;51.166;4.466;2023-03-09T03:45:41;26.73;;;10.18;;
25972;SDS011;13765;51.166;4.466;2023-03-09T03:48:10;30.98;;;10.45;;
25972;SDS011;13765;51.166;4.466;2023-03-09T03:50:35;29.17;;;9.90;;
25972;SDS011;13765;51.166;4.466;2023-03-09T03:53:03;30.95;;;11.18;;
25972;SDS011;13765;51.166;4.466;2023-03-09T03:55:32;27.25;;;9.45;;
25972;SDS011;13765;51.166;4.466;2023-03-09T03:57:57;26.48;;;9.10;;
25972;SDS011;13765;51.166;4.466;2023-03-09T04:00:23;32.22;;;11.45;;
25972;SDS011;13765;51.166;4.466;2023-03-09T04:02:49;30.23;;;9.38;;
25972;SDS011;13765;51.166;4.466;2023-03-09T04:05:15;24.67;;;9.38;;
25972;SDS011;13765;51.166;4.466;2023-03-09T04:07:41;25.65;;;10.15;;
25972;SDS011;13765;51.166;4.466;2023-03-09T04:10:07;26.80;;;11.27;;
25972;SDS011;13765;51.166;4.466;2023-03-09T04:12:36;26.45;;;9.20;;
25972;SDS011;13765;51.166;4.466;2023-03-09T04:15:04;24.35;;;8.63;;
25972;SDS011;13765;51.166;4.466;2023-03-09T04:17:30;23.58;;;9.02;;
25972;SDS011;13765;51.166;4.466;2023-03-09T04:19:58;27.33;;;11.30;;
25972;SDS011;13765;51.166;4.466;2023-03-09T04:22:26;25.45;;;10.15;;
25972;SDS011;13765;51.166;4.466;2023-03-09T04:24:52;29.80;;;11.10;;
25972;SDS011;13765;51.166;4.466;2023-03-09T04:27:17;29.52;;;10.35;;
25972;SDS011;13765;51.166;4.466;2023-03-09T04:29:43;30.10;;;9.85;;
25972;SDS011;13765;51.166;4.466;2023-03-09T04:32:11;24.65;;;8.60;;
25972;SDS011;13765;51.166;4.466;2023-03-09T04:34:39;27.35;;;11.38;;
25972;SDS011;13765;51.166;4.466;2023-03-09T04:37:05;27.88;;;10.25;;
25972;SDS011;13765;51.166;4.466;2023-03-09T04:39:30;23.25;;;9.45;;
25972;SDS011;13765;51.166;4.466;2023-03-09T04:41:56;21.98;;;8.75;;
25972;SDS011;13765;51.166;4.466;2023-03-09T04:44:24;30.77;;;11.68;;
25972;SDS011;13765;51.166;4.466;2023-03-09T04:46:50;25.02;;;8.38;;
25972;SDS011;13765;51.166;4.466;2023-03-09T04:49:16;29.38;;;9.70;;
25972;SDS011;13765;51.166;4.466;2023-03-09T04:51:43;26.48;;;8.93;;
25972;SDS011;13765;51.166;4.466;2023-03-09T04:54:09;25.75;;;9.35;;
25972;SDS011;13765;51.166;4.466;2023-03-09T04:56:35;23.55;;;11.18;;
25972;SDS011;13765;51.166;4.466;2023-03-09T04:59:00;29.05;;;10.82;;
25972;SDS011;13765;51.166;4.466;2023-03-09T05:01:28;23.42;;;10.40;;
25972;SDS011;13765;51.166;4.466;2023-03-09T05:03:54;23.02;;;8.77;;
25972;SDS011;13765;51.166;4.466;2023-03-09T05:06:20;29.88;;;10.00;;
25972;SDS011;13765;51.166;4.466;2023-03-09T05:08:45;25.05;;;7.93;;
25972;SDS011;13765;51.166;4.466;2023-03-09T05:11:11;25.48;;;10.45;;
25972;SDS011;13765;51.166;4.466;2023-03-09T05:13:37;31.98;;;9.18;;
25972;SDS011;13765;51.166;4.466;2023-03-09T05:16:03;20.20;;;8.00;;
25972;SDS011;13765;51.166;4.466;2023-03-09T05:18:34;22.85;;;9.60;;
25972;SDS011;13765;51.166;4.466;2023-03-09T05:21:04;25.95;;;9.93;;
25972;SDS011;13765;51.166;4.466;2023-03-09T05:23:33;22.92;;;8.75;;
25972;SDS011;13765;51.166;4.466;2023-03-09T05:26:02;22.30;;;9.75;;
25972;SDS011;13765;51.166;4.466;2023-03-09T05:28:32;28.15;;;9.93;;
25972;SDS011;13765;51.166;4.466;2023-03-09T05:30:58;24.67;;;8.85;;
25972;SDS011;13765;51.166;4.466;2023-03-09T05:33:24;30.73;;;11.07;;
25972;SDS011;13765;51.166;4.466;2023-03-09T05:35:52;33.83;;;9.80;;
25972;SDS011;13765;51.166;4.466;2023-03-09T05:38:20;21.48;;;9.20;;
25972;SDS011;13765;51.166;4.466;2023-03-09T05:40:48;26.27;;;8.85;;
25972;SDS011;13765;51.166;4.466;2023-03-09T05:43:13;34.00;;;12.35;;
25972;SDS011;13765;51.166;4.466;2023-03-09T05:45:39;32.83;;;11.13;;
25972;SDS011;13765;51.166;4.466;2023-03-09T05:48:05;31.55;;;12.65;;
25972;SDS011;13765;51.166;4.466;2023-03-09T05:50:31;37.03;;;11.25;;
25972;SDS011;13765;51.166;4.466;2023-03-09T05:53:00;33.40;;;11.50;;
25972;SDS011;13765;51.166;4.466;2023-03-09T05:55:25;30.58;;;11.23;;
25972;SDS011;13765;51.166;4.466;2023-03-09T05:57:59;34.28;;;11.75;;
25972;SDS011;13765;51.166;4.466;2023-03-09T06:00:24;34.03;;;13.13;;
25972;SDS011;13765;51.166;4.466;2023-03-09T06:02:50;28.60;;;11.45;;
25972;SDS011;13765;51.166;4.466;2023-03-09T06:05:15;33.65;;;11.27;;
25972;SDS011;13765;51.166;4.466;2023-03-09T06:07:44;29.13;;;11.45;;
25972;SDS011;13765;51.166;4.466;2023-03-09T06:10:10;27.08;;;11.57;;
25972;SDS011;13765;51.166;4.466;2023-03-09T06:12:37;40.05;;;10.93;;
25972;SDS011;13765;51.166;4.466;2023-03-09T06:15:05;28.52;;;10.23;;
25972;SDS011;13765;51.166;4.466;2023-03-09T06:17:31;27.73;;;11.23;;
25972;SDS011;13765;51.166;4.466;2023-03-09T06:19:58;40.78;;;13.07;;
25972;SDS011;13765;51.166;4.466;2023-03-09T06:22:26;36.60;;;13.23;;
25972;SDS011;13765;51.166;4.466;2023-03-09T06:24:54;29.20;;;10.73;;
25972;SDS011;13765;51.166;4.466;2023-03-09T06:27:19;28.05;;;10.10;;
25972;SDS011;13765;51.166;4.466;2023-03-09T06:29:45;34.30;;;11.63;;
25972;SDS011;13765;51.166;4.466;2023-03-09T06:32:13;33.10;;;12.05;;
25972;SDS011;13765;51.166;4.466;2023-03-09T06:34:41;34.20;;;12.10;;
25972;SDS011;13765;51.166;4.466;2023-03-09T06:37:07;30.48;;;10.00;;
25972;SDS011;13765;51.166;4.466;2023-03-09T06:39:35;31.38;;;11.38;;
25972;SDS011;13765;51.166;4.466;2023-03-09T06:42:03;32.47;;;10.98;;
25972;SDS011;13765;51.166;4.466;2023-03-09T06:44:30;32.90;;;10.85;;
25972;SDS011;13765;51.166;4.466;2023-03-09T06:46:55;34.33;;;12.57;;
25972;SDS011;13765;51.166;4.466;2023-03-09T06:49:21;35.03;;;12.57;;
25972;SDS011;13765;51.166;4.466;2023-03-09T06:51:47;24.48;;;10.55;;
25972;SDS011;13765;51.166;4.466;2023-03-09T06:54:13;33.80;;;11.82;;
25972;SDS011;13765;51.166;4.466;2023-03-09T06:56:39;30.58;;;11.15;;
25972;SDS011;13765;51.166;4.466;2023-03-09T06:59:08;32.50;;;13.07;;
25972;SDS011;13765;51.166;4.466;2023-03-09T07:01:33;30.90;;;11.15;;
25972;SDS011;13765;51.166;4.466;2023-03-09T07:04:04;42.60;;;12.20;;
25972;SDS011;13765;51.166;4.466;2023-03-09T07:06:31;30.90;;;11.25;;
25972;SDS011;13765;51.166;4.466;2023-03-09T07:08:57;29.25;;;11.18;;
25972;SDS011;13765;51.166;4.466;2023-03-09T07:11:22;34.67;;;10.75;;
25972;SDS011;13765;51.166;4.466;2023-03-09T07:13:48;30.55;;;10.27;;
25972;SDS011;13765;51.166;4.466;2023-03-09T07:16:14;30.77;;;10.85;;
25972;SDS011;13765;51.166;4.466;2023-03-09T07:18:39;37.22;;;11.65;;
25972;SDS011;13765;51.166;4.466;2023-03-09T07:21:05;32.35;;;10.70;;
25972;SDS011;13765;51.166;4.466;2023-03-09T07:23:31;29.77;;;9.38;;
25972;SDS011;13765;51.166;4.466;2023-03-09T07:25:58;30.15;;;9.77;;
25972;SDS011;13765;51.166;4.466;2023-03-09T07:28:28;31.08;;;11.30;;
25972;SDS011;13765;51.166;4.466;2023-03-09T07:30:54;34.53;;;13.75;;
25972;SDS011;13765;51.166;4.466;2023-03-09T07:33:20;30.13;;;11.82;;
25972;SDS011;13765;51.166;4.466;2023-03-09T07:35:48;27.10;;;10.65;;
25972;SDS011;13765;51.166;4.466;2023-03-09T07:38:21;32.65;;;11.02;;
25972;SDS011;13765;51.166;4.466;2023-03-09T07:40:49;30.20;;;11.13;;
25972;SDS011;13765;51.166;4.466;2023-03-09T07:43:15;32.90;;;11.73;;
25972;SDS011;13765;51.166;4.466;2023-03-09T07:45:41;27.70;;;11.10;;
25972;SDS011;13765;51.166;4.466;2023-03-09T07:48:06;35.65;;;10.88;;
25972;SDS011;13765;51.166;4.466;2023-03-09T07:50:33;34.10;;;11.52;;
25972;SDS011;13765;51.166;4.466;2023-03-09T07:52:59;33.92;;;11.88;;
25972;SDS011;13765;51.166;4.466;2023-03-09T07:55:25;37.80;;;13.10;;
25972;SDS011;13765;51.166;4.466;2023-03-09T07:57:51;34.58;;;12.35;;
25972;SDS011;13765;51.166;4.466;2023-03-09T08:00:17;31.75;;;13.63;;
25972;SDS011;13765;51.166;4.466;2023-03-09T08:02:48;33.00;;;12.38;;
25972;SDS011;13765;51.166;4.466;2023-03-09T08:05:16;45.85;;;13.07;;
25972;SDS011;13765;51.166;4.466;2023-03-09T08:07:43;41.80;;;14.05;;
25972;SDS011;13765;51.166;4.466;2023-03-09T08:10:14;27.90;;;12.40;;
25972;SDS011;13765;51.166;4.466;2023-03-09T08:12:41;35.17;;;13.70;;
25972;SDS011;13765;51.166;4.466;2023-03-09T08:15:09;34.05;;;12.00;;
25972;SDS011;13765;51.166;4.466;2023-03-09T08:17:35;33.28;;;11.70;;
25972;SDS011;13765;51.166;4.466;2023-03-09T08:20:00;33.85;;;13.10;;
25972;SDS011;13765;51.166;4.466;2023-03-09T08:22:26;32.95;;;13.30;;
25972;SDS011;13765;51.166;4.466;2023-03-09T08:24:54;33.35;;;12.68;;
25972;SDS011;13765;51.166;4.466;2023-03-09T08:27:20;37.92;;;14.02;;
25972;SDS011;13765;51.166;4.466;2023-03-09T08:29:45;37.38;;;11.45;;
25972;SDS011;13765;51.166;4.466;2023-03-09T08:32:12;37.13;;;11.90;;
25972;SDS011;13765;51.166;4.466;2023-03-09T08:34:38;32.88;;;11.40;;
25972;SDS011;13765;51.166;4.466;2023-03-09T08:37:06;30.20;;;10.82;;
25972;SDS011;13765;51.166;4.466;2023-03-09T08:39:34;36.30;;;11.05;;
25972;SDS011;13765;51.166;4.466;2023-03-09T08:42:08;37.67;;;13.52;;
25972;SDS011;13765;51.166;4.466;2023-03-09T08:44:38;36.45;;;14.23;;
25972;SDS011;13765;51.166;4.466;2023-03-09T08:47:05;32.88;;;8.70;;
25972;SDS011;13765;51.166;4.466;2023-03-09T08:49:30;32.85;;;10.93;;
25972;SDS011;13765;51.166;4.466;2023-03-09T08:51:56;28.85;;;10.40;;
25972;SDS011;13765;51.166;4.466;2023-03-09T08:54:22;34.17;;;12.95;;
25972;SDS011;13765;51.166;4.466;2023-03-09T08:56:47;32.15;;;11.80;;
25972;SDS011;13765;51.166;4.466;2023-03-09T08:59:13;31.05;;;10.45;;
25972;SDS011;13765;51.166;4.466;2023-03-09T09:01:39;27.25;;;10.02;;
25972;SDS011;13765;51.166;4.466;2023-03-09T09:04:04;26.33;;;10.48;;
25972;SDS011;13765;51.166;4.466;2023-03-09T09:06:35;29.65;;;11.77;;
25972;SDS011;13765;51.166;4.466;2023-03-09T09:09:02;34.83;;;11.10;;
25972;SDS011;13765;51.166;4.466;2023-03-09T09:11:28;29.35;;;10.75;;
25972;SDS011;13765;51.166;4.466;2023-03-09T09:13:56;29.50;;;11.05;;
25972;SDS011;13765;51.166;4.466;2023-03-09T09:16:22;35.30;;;12.73;;
25972;SDS011;13765;51.166;4.466;2023-03-09T09:18:47;30.98;;;9.98;;
25972;SDS011;13765;51.166;4.466;2023-03-09T09:21:14;31.48;;;10.50;;
25972;SDS011;13765;51.166;4.466;2023-03-09T09:23:43;26.00;;;10.85;;
25972;SDS011;13765;51.166;4.466;2023-03-09T09:26:09;27.10;;;10.48;;
25972;SDS011;13765;51.166;4.466;2023-03-09T09:28:39;31.98;;;9.35;;
25972;SDS011;13765;51.166;4.466;2023-03-09T09:31:05;31.67;;;12.07;;
25972;SDS011;13765;51.166;4.466;2023-03-09T09:33:32;31.25;;;13.00;;
25972;SDS011;13765;51.166;4.466;2023-03-09T09:36:03;30.95;;;9.68;;
25972;SDS011;13765;51.166;4.466;2023-03-09T09:38:31;32.28;;;11.40;;
25972;SDS011;13765;51.166;4.466;2023-03-09T09:41:02;28.98;;;10.77;;
25972;SDS011;13765;51.166;4.466;2023-03-09T09:43:31;28.98;;;11.05;;
25972;SDS011;13765;51.166;4.466;2023-03-09T09:45:57;39.08;;;12.60;;
25972;SDS011;13765;51.166;4.466;2023-03-09T09:48:24;27.65;;;12.20;;
25972;SDS011;13765;51.166;4.466;2023-03-09T09:56:16;27.42;;;9.13;;
25972;SDS011;13765;51.166;4.466;2023-03-09T10:01:21;31.92;;;10.45;;
25972;SDS011;13765;51.166;4.466;2023-03-09T10:03:52;26.50;;;10.80;;
25972;SDS011;13765;51.166;4.466;2023-03-09T10:06:29;27.80;;;11.00;;
25972;SDS011;13765;51.166;4.466;2023-03-09T10:09:01;32.72;;;11.60;;
25972;SDS011;13765;51.166;4.466;2023-03-09T10:11:46;27.73;;;10.63;;
25972;SDS011;13765;51.166;4.466;2023-03-09T10:14:39;25.73;;;11.40;;
25972;SDS011;13765;51.166;4.466;2023-03-09T10:17:16;31.67;;;12.60;;
25972;SDS011;13765;51.166;4.466;2023-03-09T10:19:48;26.65;;;9.68;;
25972;SDS011;13765;51.166;4.466;2023-03-09T10:22:20;26.10;;;10.82;;
25972;SDS011;13765;51.166;4.466;2023-03-09T10:24:49;30.60;;;11.95;;
25972;SDS011;13765;51.166;4.466;2023-03-09T10:27:22;31.33;;;11.15;;
25972;SDS011;13765;51.166;4.466;2023-03-09T10:32:20;31.75;;;10.98;;
25972;SDS011;13765;51.166;4.466;2023-03-09T10:34:57;31.60;;;9.63;;
25972;SDS011;13765;51.166;4.466;2023-03-09T10:37:32;30.88;;;9.52;;
25972;SDS011;13765;51.166;4.466;2023-03-09T10:40:05;31.55;;;9.82;;
25972;SDS011;13765;51.166;4.466;2023-03-09T10:42:43;25.98;;;10.75;;
25972;SDS011;13765;51.166;4.466;2023-03-09T10:50:19;32.25;;;11.85;;
25972;SDS011;13765;51.166;4.466;2023-03-09T10:52:49;34.95;;;10.07;;
25972;SDS011;13765;51.166;4.466;2023-03-09T10:58:01;24.15;;;10.50;;
25972;SDS011;13765;51.166;4.466;2023-03-09T11:01:04;28.42;;;10.27;;
25972;SDS011;13765;51.166;4.466;2023-03-09T11:03:33;32.25;;;10.75;;
25972;SDS011;13765;51.166;4.466;2023-03-09T11:11:46;32.90;;;11.10;;
25972;SDS011;13765;51.166;4.466;2023-03-09T11:14:20;36.22;;;10.70;;
25972;SDS011;13765;51.166;4.466;2023-03-09T11:16:58;27.10;;;10.27;;
25972;SDS011;13765;51.166;4.466;2023-03-09T11:19:27;31.37;;;10.67;;
25972;SDS011;13765;51.166;4.466;2023-03-09T11:24:22;31.30;;;11.90;;
25972;SDS011;13765;51.166;4.466;2023-03-09T11:32:37;21.85;;;8.60;;
25972;SDS011;13765;51.166;4.466;2023-03-09T11:35:05;25.23;;;8.23;;
25972;SDS011;13765;51.166;4.466;2023-03-09T11:40:19;31.75;;;10.90;;
25972;SDS011;13765;51.166;4.466;2023-03-09T11:42:53;22.20;;;9.35;;
25972;SDS011;13765;51.166;4.466;2023-03-09T11:45:35;18.35;;;6.82;;
25972;SDS011;13765;51.166;4.466;2023-03-09T11:54:02;24.20;;;7.82;;
25972;SDS011;13765;51.166;4.466;2023-03-09T11:56:37;27.42;;;7.95;;
25972;SDS011;13765;51.166;4.466;2023-03-09T11:59:17;28.98;;;10.02;;
25972;SDS011;13765;51.166;4.466;2023-03-09T12:02:18;30.83;;;9.85;;
25972;SDS011;13765;51.166;4.466;2023-03-09T12:05:00;30.25;;;9.52;;
25972;SDS011;13765;51.166;4.466;2023-03-09T12:07:38;33.22;;;10.13;;
25972;SDS011;13765;51.166;4.466;2023-03-09T12:10:08;22.48;;;9.55;;
25972;SDS011;13765;51.166;4.466;2023-03-09T12:15:34;28.60;;;9.95;;
25972;SDS011;13765;51.166;4.466;2023-03-09T12:18:05;28.52;;;11.20;;
25972;SDS011;13765;51.166;4.466;2023-03-09T12:20:47;27.80;;;10.30;;
25972;SDS011;13765;51.166;4.466;2023-03-09T12:26:01;21.80;;;7.78;;
25972;SDS011;13765;51.166;4.466;2023-03-09T12:28:31;19.77;;;7.10;;
25972;SDS011;13765;51.166;4.466;2023-03-09T12:31:01;20.38;;;8.90;;
25972;SDS011;13765;51.166;4.466;2023-03-09T12:50:22;21.65;;;7.40;;
25972;SDS011;13765;51.166;4.466;2023-03-09T12:53:15;21.75;;;8.27;;
25972;SDS011;13765;51.166;4.466;2023-03-09T12:55:48;21.00;;;7.53;;
25972;SDS011;13765;51.166;4.466;2023-03-09T13:01:44;23.35;;;7.75;;
25972;SDS011;13765;51.166;4.466;2023-03-09T13:03:41;21.38;;;6.80;;
25972;SDS011;13765;51.166;4.466;2023-03-09T13:06:29;24.52;;;10.10;;
25972;SDS011;13765;51.166;4.466;2023-03-09T13:11:43;25.05;;;9.40;;
25972;SDS011;13765;51.166;4.466;2023-03-09T13:30:12;22.92;;;8.18;;
25972;SDS011;13765;51.166;4.466;2023-03-09T13:35:25;23.30;;;8.82;;
25972;SDS011;13765;51.166;4.466;2023-03-09T13:37:54;21.60;;;7.07;;
25972;SDS011;13765;51.166;4.466;2023-03-09T13:40:24;24.88;;;8.32;;
25972;SDS011;13765;51.166;4.466;2023-03-09T13:42:50;19.58;;;7.13;;
25972;SDS011;13765;51.166;4.466;2023-03-09T13:45:20;22.85;;;9.45;;
25972;SDS011;13765;51.166;4.466;2023-03-09T13:47:54;25.55;;;8.70;;
25972;SDS011;13765;51.166;4.466;2023-03-09T13:50:23;34.97;;;9.82;;
25972;SDS011;13765;51.166;4.466;2023-03-09T13:53:03;27.35;;;8.10;;
25972;SDS011;13765;51.166;4.466;2023-03-09T13:56:12;24.40;;;7.90;;
25972;SDS011;13765;51.166;4.466;2023-03-09T13:58:40;19.52;;;7.43;;
25972;SDS011;13765;51.166;4.466;2023-03-09T14:01:17;27.23;;;9.38;;
25972;SDS011;13765;51.166;4.466;2023-03-09T14:03:49;21.92;;;8.68;;
25972;SDS011;13765;51.166;4.466;2023-03-09T14:06:36;21.15;;;6.57;;
25972;SDS011;13765;51.166;4.466;2023-03-09T14:09:11;25.00;;;7.70;;
25972;SDS011;13765;51.166;4.466;2023-03-09T14:11:59;20.90;;;8.10;;
25972;SDS011;13765;51.166;4.466;2023-03-09T14:14:28;28.92;;;8.43;;
25972;SDS011;13765;51.166;4.466;2023-03-09T14:16:54;27.48;;;9.50;;
25972;SDS011;13765;51.166;4.466;2023-03-09T14:19:27;24.73;;;7.65;;
25972;SDS011;13765;51.166;4.466;2023-03-09T14:21:54;24.20;;;8.77;;
25972;SDS011;13765;51.166;4.466;2023-03-09T14:26:55;29.27;;;9.35;;
25972;SDS011;13765;51.166;4.466;2023-03-09T14:29:28;30.23;;;8.90;;
25972;SDS011;13765;51.166;4.466;2023-03-09T14:34:43;27.98;;;8.52;;
25972;SDS011;13765;51.166;4.466;2023-03-09T14:37:16;27.10;;;8.60;;
25972;SDS011;13765;51.166;4.466;2023-03-09T14:39:44;24.75;;;8.35;;
25972;SDS011;13765;51.166;4.466;2023-03-09T14:47:45;25.75;;;8.82;;
25972;SDS011;13765;51.166;4.466;2023-03-09T14:50:17;24.55;;;8.70;;
25972;SDS011;13765;51.166;4.466;2023-03-09T14:52:44;22.45;;;7.80;;
25972;SDS011;13765;51.166;4.466;2023-03-09T14:55:14;21.10;;;9.20;;
25972;SDS011;13765;51.166;4.466;2023-03-09T14:57:46;21.63;;;8.10;;
25972;SDS011;13765;51.166;4.466;2023-03-09T15:00:19;24.30;;;8.68;;
25972;SDS011;13765;51.166;4.466;2023-03-09T15:02:52;21.30;;;8.07;;
25972;SDS011;13765;51.166;4.466;2023-03-09T15:05:21;18.17;;;7.43;;
25972;SDS011;13765;51.166;4.466;2023-03-09T15:07:51;25.63;;;7.10;;
25972;SDS011;13765;51.166;4.466;2023-03-09T15:10:19;25.00;;;8.65;;
25972;SDS011;13765;51.166;4.466;2023-03-09T15:12:44;20.58;;;6.60;;
25972;SDS011;13765;51.166;4.466;2023-03-09T15:15:14;24.85;;;8.27;;
25972;SDS011;13765;51.166;4.466;2023-03-09T15:17:51;26.05;;;8.02;;
25972;SDS011;13765;51.166;4.466;2023-03-09T15:20:22;24.92;;;8.02;;
25972;SDS011;13765;51.166;4.466;2023-03-09T15:22:49;25.90;;;9.35;;
25972;SDS011;13765;51.166;4.466;2023-03-09T15:25:16;24.98;;;9.52;;
25972;SDS011;13765;51.166;4.466;2023-03-09T15:27:44;23.85;;;7.63;;
25972;SDS011;13765;51.166;4.466;2023-03-09T15:30:15;29.50;;;9.20;;
25972;SDS011;13765;51.166;4.466;2023-03-09T15:32:44;26.90;;;8.25;;
25972;SDS011;13765;51.166;4.466;2023-03-09T15:35:14;21.83;;;7.22;;
25972;SDS011;13765;51.166;4.466;2023-03-09T15:37:41;24.27;;;9.02;;
25972;SDS011;13765;51.166;4.466;2023-03-09T15:40:08;23.25;;;7.32;;
25972;SDS011;13765;51.166;4.466;2023-03-09T15:42:38;30.17;;;9.38;;
25972;SDS011;13765;51.166;4.466;2023-03-09T15:45:05;22.92;;;8.23;;
25972;SDS011;13765;51.166;4.466;2023-03-09T15:47:32;20.58;;;7.07;;
25972;SDS011;13765;51.166;4.466;2023-03-09T15:50:01;23.33;;;8.70;;
25972;SDS011;13765;51.166;4.466;2023-03-09T15:52:28;24.42;;;7.95;;
25972;SDS011;13765;51.166;4.466;2023-03-09T15:54:56;26.33;;;8.23;;
25972;SDS011;13765;51.166;4.466;2023-03-09T15:57:21;22.17;;;7.38;;
25972;SDS011;13765;51.166;4.466;2023-03-09T15:59:49;15.82;;;4.35;;
25972;SDS011;13765;51.166;4.466;2023-03-09T16:02:17;17.55;;;4.93;;
25972;SDS011;13765;51.166;4.466;2023-03-09T16:04:47;14.63;;;3.17;;
25972;SDS011;13765;51.166;4.466;2023-03-09T16:07:16;16.17;;;2.85;;
25972;SDS011;13765;51.166;4.466;2023-03-09T16:09:44;12.15;;;2.65;;
25972;SDS011;13765;51.166;4.466;2023-03-09T16:12:12;12.07;;;3.20;;
25972;SDS011;13765;51.166;4.466;2023-03-09T16:14:38;20.80;;;2.35;;
25972;SDS011;13765;51.166;4.466;2023-03-09T16:17:03;14.38;;;2.42;;
25972;SDS011;13765;51.166;4.466;2023-03-09T16:19:35;15.95;;;3.00;;
25972;SDS011;13765;51.166;4.466;2023-03-09T16:22:00;11.15;;;2.67;;
25972;SDS011;13765;51.166;4.466;2023-03-09T16:24:29;19.20;;;3.63;;
25972;SDS011;13765;51.166;4.466;2023-03-09T16:26:57;14.85;;;3.17;;
25972;SDS011;13765;51.166;4.466;2023-03-09T16:29:22;9.80;;;2.95;;